sensor_id;sensor_type;location;lat;lon;timestamp;pressure;altitude;pressure_sealevel;temperature
70533;BMP180;58088;51.186;17.130;2023-11-19T00:00:11;100743.80;;;6.10
70533;BMP180;58088;51.186;17.130;2023-11-19T00:02:41;100737.00;;;6.08
70533;BMP180;58088;51.186;17.130;2023-11-19T00:05:09;100743.40;;;6.08
70533;BMP180;58088;51.186;17.130;2023-11-19T00:07:38;100745.20;;;6.10
70533;BMP180;58088;51.186;17.130;2023-11-19T00:10:13;100738.20;;;6.08
70533;BMP180;58088;51.186;17.130;2023-11-19T00:12:44;100727.00;;;6.00
70533;BMP180;58088;51.186;17.130;2023-11-19T00:15:12;100720.60;;;6.00
70533;BMP180;58088;51.186;17.130;2023-11-19T00:17:43;100711.20;;;6.00
70533;BMP180;58088;51.186;17.130;2023-11-19T00:20:15;100703.40;;;6.00
70533;BMP180;58088;51.186;17.130;2023-11-19T00:22:42;100696.80;;;6.00
70533;BMP180;58088;51.186;17.130;2023-11-19T00:25:10;100706.40;;;5.90
70533;BMP180;58088;51.186;17.130;2023-11-19T00:27:36;100698.00;;;5.90
70533;BMP180;58088;51.186;17.130;2023-11-19T00:30:06;100693.40;;;5.92
70533;BMP180;58088;51.186;17.130;2023-11-19T00:32:34;100691.80;;;5.90
70533;BMP180;58088;51.186;17.130;2023-11-19T00:35:00;100682.60;;;5.88
70533;BMP180;58088;51.186;17.130;2023-11-19T00:37:26;100674.00;;;5.90
70533;BMP180;58088;51.186;17.130;2023-11-19T00:39:53;100664.80;;;5.88
70533;BMP180;58088;51.186;17.130;2023-11-19T00:42:19;100661.00;;;5.80
70533;BMP180;58088;51.186;17.130;2023-11-19T00:44:46;100656.60;;;5.74
70533;BMP180;58088;51.186;17.130;2023-11-19T00:47:12;100656.00;;;5.70
70533;BMP180;58088;51.186;17.130;2023-11-19T00:49:38;100646.80;;;5.70
70533;BMP180;58088;51.186;17.130;2023-11-19T00:52:05;100645.80;;;5.60
70533;BMP180;58088;51.186;17.130;2023-11-19T00:54:32;100621.80;;;5.60
70533;BMP180;58088;51.186;17.130;2023-11-19T00:56:58;100613.00;;;5.60
70533;BMP180;58088;51.186;17.130;2023-11-19T00:59:24;100620.80;;;5.54
70533;BMP180;58088;51.186;17.130;2023-11-19T01:01:51;100623.40;;;5.50
70533;BMP180;58088;51.186;17.130;2023-11-19T01:04:17;100622.80;;;5.50
70533;BMP180;58088;51.186;17.130;2023-11-19T01:06:43;100618.80;;;5.50
70533;BMP180;58088;51.186;17.130;2023-11-19T01:09:09;100605.40;;;5.42
70533;BMP180;58088;51.186;17.130;2023-11-19T01:11:36;100591.40;;;5.40
70533;BMP180;58088;51.186;17.130;2023-11-19T01:14:03;100581.40;;;5.38
70533;BMP180;58088;51.186;17.130;2023-11-19T01:16:29;100571.60;;;5.30
70533;BMP180;58088;51.186;17.130;2023-11-19T01:18:55;100566.00;;;5.30
70533;BMP180;58088;51.186;17.130;2023-11-19T01:21:22;100554.60;;;5.22
70533;BMP180;58088;51.186;17.130;2023-11-19T01:23:48;100550.80;;;5.20
70533;BMP180;58088;51.186;17.130;2023-11-19T01:26:15;100539.20;;;5.20
70533;BMP180;58088;51.186;17.130;2023-11-19T01:28:42;100536.40;;;5.14
70533;BMP180;58088;51.186;17.130;2023-11-19T01:31:16;100519.20;;;5.10
70533;BMP180;58088;51.186;17.130;2023-11-19T01:33:43;100512.20;;;5.10
70533;BMP180;58088;51.186;17.130;2023-11-19T01:36:12;100517.00;;;5.02
70533;BMP180;58088;51.186;17.130;2023-11-19T01:38:38;100512.60;;;5.00
70533;BMP180;58088;51.186;17.130;2023-11-19T01:41:05;100514.80;;;5.00
70533;BMP180;58088;51.186;17.130;2023-11-19T01:43:39;100509.00;;;4.90
70533;BMP180;58088;51.186;17.130;2023-11-19T01:46:09;100502.60;;;4.90
70533;BMP180;58088;51.186;17.130;2023-11-19T01:48:45;100497.00;;;4.90
70533;BMP180;58088;51.186;17.130;2023-11-19T01:51:13;100498.40;;;4.90
70533;BMP180;58088;51.186;17.130;2023-11-19T01:53:45;100504.00;;;4.90
70533;BMP180;58088;51.186;17.130;2023-11-19T01:56:15;100500.20;;;4.86
70533;BMP180;58088;51.186;17.130;2023-11-19T01:58:45;100497.00;;;4.84
70533;BMP180;58088;51.186;17.130;2023-11-19T02:01:14;100490.60;;;4.88
70533;BMP180;58088;51.186;17.130;2023-11-19T02:03:43;100485.80;;;4.90
70533;BMP180;58088;51.186;17.130;2023-11-19T02:06:10;100484.20;;;4.90
70533;BMP180;58088;51.186;17.130;2023-11-19T02:08:36;100474.40;;;4.84
70533;BMP180;58088;51.186;17.130;2023-11-19T02:11:05;100467.20;;;4.80
70533;BMP180;58088;51.186;17.130;2023-11-19T02:13:32;100468.80;;;4.80
70533;BMP180;58088;51.186;17.130;2023-11-19T02:15:59;100470.40;;;4.80
70533;BMP180;58088;51.186;17.130;2023-11-19T02:18:27;100479.00;;;4.84
70533;BMP180;58088;51.186;17.130;2023-11-19T02:20:55;100468.60;;;4.84
70533;BMP180;58088;51.186;17.130;2023-11-19T02:23:23;100465.20;;;4.80
70533;BMP180;58088;51.186;17.130;2023-11-19T02:26:37;100465.00;;;4.80
70533;BMP180;58088;51.186;17.130;2023-11-19T02:29:05;100458.80;;;4.80
70533;BMP180;58088;51.186;17.130;2023-11-19T02:31:32;100459.40;;;4.80
70533;BMP180;58088;51.186;17.130;2023-11-19T02:33:59;100450.80;;;4.84
70533;BMP180;58088;51.186;17.130;2023-11-19T02:36:26;100443.80;;;4.82
70533;BMP180;58088;51.186;17.130;2023-11-19T02:38:52;100432.80;;;4.80
70533;BMP180;58088;51.186;17.130;2023-11-19T02:41:18;100427.20;;;4.80
70533;BMP180;58088;51.186;17.130;2023-11-19T02:43:45;100422.00;;;4.80
70533;BMP180;58088;51.186;17.130;2023-11-19T02:46:11;100427.00;;;4.80
70533;BMP180;58088;51.186;17.130;2023-11-19T02:48:37;100431.20;;;4.80
70533;BMP180;58088;51.186;17.130;2023-11-19T02:51:05;100414.60;;;4.80
70533;BMP180;58088;51.186;17.130;2023-11-19T02:53:35;100415.40;;;4.80
70533;BMP180;58088;51.186;17.130;2023-11-19T02:56:03;100420.00;;;4.80
70533;BMP180;58088;51.186;17.130;2023-11-19T02:58:51;100424.20;;;4.80
70533;BMP180;58088;51.186;17.130;2023-11-19T03:02:03;100404.00;;;4.80
70533;BMP180;58088;51.186;17.130;2023-11-19T03:04:47;100396.40;;;4.80
70533;BMP180;58088;51.186;17.130;2023-11-19T03:07:13;100395.00;;;4.80
70533;BMP180;58088;51.186;17.130;2023-11-19T03:09:39;100388.40;;;4.80
70533;BMP180;58088;51.186;17.130;2023-11-19T03:12:06;100380.00;;;4.80
70533;BMP180;58088;51.186;17.130;2023-11-19T03:14:36;100370.60;;;4.80
70533;BMP180;58088;51.186;17.130;2023-11-19T03:17:02;100365.80;;;4.80
70533;BMP180;58088;51.186;17.130;2023-11-19T03:19:29;100361.40;;;4.80
70533;BMP180;58088;51.186;17.130;2023-11-19T03:21:55;100355.80;;;4.80
70533;BMP180;58088;51.186;17.130;2023-11-19T03:24:22;100343.80;;;4.80
70533;BMP180;58088;51.186;17.130;2023-11-19T03:26:49;100347.60;;;4.80
70533;BMP180;58088;51.186;17.130;2023-11-19T03:29:18;100345.20;;;4.80
70533;BMP180;58088;51.186;17.130;2023-11-19T03:31:44;100345.40;;;4.80
70533;BMP180;58088;51.186;17.130;2023-11-19T03:34:13;100335.60;;;4.74
70533;BMP180;58088;51.186;17.130;2023-11-19T03:36:39;100326.60;;;4.70
70533;BMP180;58088;51.186;17.130;2023-11-19T03:39:05;100334.00;;;4.70
70533;BMP180;58088;51.186;17.130;2023-11-19T03:41:31;100337.40;;;4.80
70533;BMP180;58088;51.186;17.130;2023-11-19T03:43:57;100318.00;;;4.80
70533;BMP180;58088;51.186;17.130;2023-11-19T03:46:23;100314.00;;;4.80
70533;BMP180;58088;51.186;17.130;2023-11-19T03:48:50;100305.80;;;4.80
70533;BMP180;58088;51.186;17.130;2023-11-19T03:51:17;100296.00;;;4.80
70533;BMP180;58088;51.186;17.130;2023-11-19T03:53:44;100291.60;;;4.74
70533;BMP180;58088;51.186;17.130;2023-11-19T03:56:12;100295.40;;;4.80
70533;BMP180;58088;51.186;17.130;2023-11-19T03:58:39;100283.60;;;4.80
70533;BMP180;58088;51.186;17.130;2023-11-19T04:01:10;100278.80;;;4.70
70533;BMP180;58088;51.186;17.130;2023-11-19T04:03:37;100272.40;;;4.70
70533;BMP180;58088;51.186;17.130;2023-11-19T04:06:03;100274.20;;;4.74
70533;BMP180;58088;51.186;17.130;2023-11-19T04:08:30;100269.20;;;4.70
70533;BMP180;58088;51.186;17.130;2023-11-19T04:10:56;100270.00;;;4.70
70533;BMP180;58088;51.186;17.130;2023-11-19T04:13:22;100264.40;;;4.70
70533;BMP180;58088;51.186;17.130;2023-11-19T04:15:50;100248.20;;;4.70
70533;BMP180;58088;51.186;17.130;2023-11-19T04:18:17;100230.20;;;4.70
70533;BMP180;58088;51.186;17.130;2023-11-19T04:20:43;100227.40;;;4.72
70533;BMP180;58088;51.186;17.130;2023-11-19T04:23:09;100223.40;;;4.76
70533;BMP180;58088;51.186;17.130;2023-11-19T04:25:35;100213.80;;;4.78
70533;BMP180;58088;51.186;17.130;2023-11-19T04:28:02;100205.00;;;4.76
70533;BMP180;58088;51.186;17.130;2023-11-19T04:30:28;100197.00;;;4.70
70533;BMP180;58088;51.186;17.130;2023-11-19T04:32:54;100179.60;;;4.70
70533;BMP180;58088;51.186;17.130;2023-11-19T04:35:20;100167.20;;;4.70
70533;BMP180;58088;51.186;17.130;2023-11-19T04:37:47;100162.40;;;4.70
70533;BMP180;58088;51.186;17.130;2023-11-19T04:40:13;100153.20;;;4.70
70533;BMP180;58088;51.186;17.130;2023-11-19T04:42:39;100148.60;;;4.70
70533;BMP180;58088;51.186;17.130;2023-11-19T04:45:07;100151.60;;;4.70
70533;BMP180;58088;51.186;17.130;2023-11-19T04:47:33;100152.20;;;4.70
70533;BMP180;58088;51.186;17.130;2023-11-19T04:50:00;100148.60;;;4.70
70533;BMP180;58088;51.186;17.130;2023-11-19T04:52:26;100148.00;;;4.74
70533;BMP180;58088;51.186;17.130;2023-11-19T04:54:52;100151.00;;;4.78
70533;BMP180;58088;51.186;17.130;2023-11-19T04:57:18;100145.00;;;4.80
70533;BMP180;58088;51.186;17.130;2023-11-19T04:59:45;100140.40;;;4.80
70533;BMP180;58088;51.186;17.130;2023-11-19T05:02:11;100139.80;;;4.80
70533;BMP180;58088;51.186;17.130;2023-11-19T05:04:37;100130.40;;;4.80
70533;BMP180;58088;51.186;17.130;2023-11-19T05:07:06;100133.00;;;4.80
70533;BMP180;58088;51.186;17.130;2023-11-19T05:09:33;100127.00;;;4.82
70533;BMP180;58088;51.186;17.130;2023-11-19T05:11:59;100126.60;;;4.80
70533;BMP180;58088;51.186;17.130;2023-11-19T05:14:25;100128.40;;;4.80
70533;BMP180;58088;51.186;17.130;2023-11-19T05:16:51;100129.80;;;4.80
70533;BMP180;58088;51.186;17.130;2023-11-19T05:19:17;100121.40;;;4.80
70533;BMP180;58088;51.186;17.130;2023-11-19T05:21:44;100111.80;;;4.88
70533;BMP180;58088;51.186;17.130;2023-11-19T05:24:11;100102.20;;;4.84
70533;BMP180;58088;51.186;17.130;2023-11-19T05:26:39;100088.00;;;4.88
70533;BMP180;58088;51.186;17.130;2023-11-19T05:29:06;100085.00;;;4.84
70533;BMP180;58088;51.186;17.130;2023-11-19T05:31:33;100091.60;;;4.90
70533;BMP180;58088;51.186;17.130;2023-11-19T05:33:59;100088.20;;;4.90
70533;BMP180;58088;51.186;17.130;2023-11-19T05:36:25;100080.00;;;4.90
70533;BMP180;58088;51.186;17.130;2023-11-19T05:38:51;100069.40;;;4.90
70533;BMP180;58088;51.186;17.130;2023-11-19T05:41:17;100056.20;;;4.90
70533;BMP180;58088;51.186;17.130;2023-11-19T05:43:43;100061.80;;;4.90
70533;BMP180;58088;51.186;17.130;2023-11-19T05:46:09;100068.40;;;4.98
70533;BMP180;58088;51.186;17.130;2023-11-19T05:48:35;100069.60;;;4.98
70533;BMP180;58088;51.186;17.130;2023-11-19T05:51:02;100070.40;;;5.00
70533;BMP180;58088;51.186;17.130;2023-11-19T05:53:28;100060.80;;;5.00
70533;BMP180;58088;51.186;17.130;2023-11-19T05:55:55;100052.40;;;5.00
70533;BMP180;58088;51.186;17.130;2023-11-19T05:58:26;100051.00;;;5.00
70533;BMP180;58088;51.186;17.130;2023-11-19T06:00:58;100049.40;;;5.00
70533;BMP180;58088;51.186;17.130;2023-11-19T06:03:26;100053.80;;;5.08
70533;BMP180;58088;51.186;17.130;2023-11-19T06:05:53;100059.80;;;5.10
70533;BMP180;58088;51.186;17.130;2023-11-19T06:08:20;100055.00;;;5.10
70533;BMP180;58088;51.186;17.130;2023-11-19T06:10:46;100041.80;;;5.10
70533;BMP180;58088;51.186;17.130;2023-11-19T06:13:13;100038.00;;;5.10
70533;BMP180;58088;51.186;17.130;2023-11-19T06:15:44;100031.80;;;5.10
70533;BMP180;58088;51.186;17.130;2023-11-19T06:18:10;100025.40;;;5.10
70533;BMP180;58088;51.186;17.130;2023-11-19T06:20:41;100027.80;;;5.16
70533;BMP180;58088;51.186;17.130;2023-11-19T06:23:07;100021.80;;;5.20
70533;BMP180;58088;51.186;17.130;2023-11-19T06:25:33;100021.60;;;5.20
70533;BMP180;58088;51.186;17.130;2023-11-19T06:28:01;100029.00;;;5.20
70533;BMP180;58088;51.186;17.130;2023-11-19T06:30:27;100022.00;;;5.20
70533;BMP180;58088;51.186;17.130;2023-11-19T06:32:56;100013.20;;;5.20
70533;BMP180;58088;51.186;17.130;2023-11-19T06:35:22;100013.20;;;5.22
70533;BMP180;58088;51.186;17.130;2023-11-19T06:37:48;100004.00;;;5.30
70533;BMP180;58088;51.186;17.130;2023-11-19T06:40:14;99988.40;;;5.26
70533;BMP180;58088;51.186;17.130;2023-11-19T06:42:41;99985.20;;;5.20
70533;BMP180;58088;51.186;17.130;2023-11-19T06:45:08;99991.00;;;5.30
70533;BMP180;58088;51.186;17.130;2023-11-19T06:47:35;99988.40;;;5.30
70533;BMP180;58088;51.186;17.130;2023-11-19T06:50:01;99989.80;;;5.30
70533;BMP180;58088;51.186;17.130;2023-11-19T06:52:31;99983.80;;;5.30
70533;BMP180;58088;51.186;17.130;2023-11-19T06:54:57;99972.00;;;5.30
70533;BMP180;58088;51.186;17.130;2023-11-19T06:57:23;99962.20;;;5.38
70533;BMP180;58088;51.186;17.130;2023-11-19T06:59:50;99951.40;;;5.34
70533;BMP180;58088;51.186;17.130;2023-11-19T07:02:16;99945.80;;;5.40
70533;BMP180;58088;51.186;17.130;2023-11-19T07:04:42;99943.40;;;5.40
70533;BMP180;58088;51.186;17.130;2023-11-19T07:07:08;99930.80;;;5.40
70533;BMP180;58088;51.186;17.130;2023-11-19T07:09:35;99927.00;;;5.50
70533;BMP180;58088;51.186;17.130;2023-11-19T07:12:01;99929.20;;;5.50
70533;BMP180;58088;51.186;17.130;2023-11-19T07:14:30;99930.00;;;5.50
70533;BMP180;58088;51.186;17.130;2023-11-19T07:16:56;99926.20;;;5.60
70533;BMP180;58088;51.186;17.130;2023-11-19T07:19:23;99926.20;;;5.60
70533;BMP180;58088;51.186;17.130;2023-11-19T07:21:49;99927.00;;;5.60
70533;BMP180;58088;51.186;17.130;2023-11-19T07:24:15;99917.40;;;5.60
70533;BMP180;58088;51.186;17.130;2023-11-19T07:26:47;99912.00;;;5.62
70533;BMP180;58088;51.186;17.130;2023-11-19T07:29:14;99909.80;;;5.70
70533;BMP180;58088;51.186;17.130;2023-11-19T07:31:42;99898.40;;;5.70
70533;BMP180;58088;51.186;17.130;2023-11-19T07:34:10;99904.20;;;5.70
70533;BMP180;58088;51.186;17.130;2023-11-19T07:36:38;99903.60;;;5.70
70533;BMP180;58088;51.186;17.130;2023-11-19T07:39:04;99898.00;;;5.70
70533;BMP180;58088;51.186;17.130;2023-11-19T07:41:31;99896.20;;;5.70
70533;BMP180;58088;51.186;17.130;2023-11-19T07:43:57;99900.00;;;5.80
70533;BMP180;58088;51.186;17.130;2023-11-19T07:46:23;99899.60;;;5.80
70533;BMP180;58088;51.186;17.130;2023-11-19T07:48:52;99891.00;;;5.90
70533;BMP180;58088;51.186;17.130;2023-11-19T07:51:19;99883.40;;;5.90
70533;BMP180;58088;51.186;17.130;2023-11-19T07:53:48;99878.00;;;6.00
70533;BMP180;58088;51.186;17.130;2023-11-19T07:56:15;99871.00;;;6.00
70533;BMP180;58088;51.186;17.130;2023-11-19T07:58:41;99869.00;;;6.00
70533;BMP180;58088;51.186;17.130;2023-11-19T08:01:08;99871.00;;;6.00
70533;BMP180;58088;51.186;17.130;2023-11-19T08:03:35;99877.00;;;6.10
70533;BMP180;58088;51.186;17.130;2023-11-19T08:06:02;99883.40;;;6.10
70533;BMP180;58088;51.186;17.130;2023-11-19T08:08:29;99876.00;;;6.10
70533;BMP180;58088;51.186;17.130;2023-11-19T08:10:56;99867.80;;;6.12
70533;BMP180;58088;51.186;17.130;2023-11-19T08:13:26;99859.20;;;6.10
70533;BMP180;58088;51.186;17.130;2023-11-19T08:15:53;99859.40;;;6.20
70533;BMP180;58088;51.186;17.130;2023-11-19T08:18:20;99856.40;;;6.18
70533;BMP180;58088;51.186;17.130;2023-11-19T08:20:46;99848.60;;;6.16
70533;BMP180;58088;51.186;17.130;2023-11-19T08:23:19;99847.80;;;6.10
70533;BMP180;58088;51.186;17.130;2023-11-19T08:25:45;99838.80;;;6.08
70533;BMP180;58088;51.186;17.130;2023-11-19T08:28:11;99832.40;;;6.08
70533;BMP180;58088;51.186;17.130;2023-11-19T08:30:38;99834.00;;;6.10
70533;BMP180;58088;51.186;17.130;2023-11-19T08:33:04;99822.80;;;6.10
70533;BMP180;58088;51.186;17.130;2023-11-19T08:35:32;99819.40;;;6.10
70533;BMP180;58088;51.186;17.130;2023-11-19T08:37:58;99814.40;;;6.10
70533;BMP180;58088;51.186;17.130;2023-11-19T08:40:25;99812.60;;;6.10
70533;BMP180;58088;51.186;17.130;2023-11-19T08:42:56;99796.40;;;6.02
70533;BMP180;58088;51.186;17.130;2023-11-19T08:45:22;99792.00;;;6.00
70533;BMP180;58088;51.186;17.130;2023-11-19T08:47:49;99779.40;;;6.00
70533;BMP180;58088;51.186;17.130;2023-11-19T08:50:16;99778.00;;;5.98
70533;BMP180;58088;51.186;17.130;2023-11-19T08:53:02;99781.60;;;5.94
70533;BMP180;58088;51.186;17.130;2023-11-19T08:55:35;99767.60;;;5.90
70533;BMP180;58088;51.186;17.130;2023-11-19T08:58:04;99767.80;;;5.90
70533;BMP180;58088;51.186;17.130;2023-11-19T09:00:37;99760.20;;;5.80
70533;BMP180;58088;51.186;17.130;2023-11-19T09:03:03;99765.60;;;5.72
70533;BMP180;58088;51.186;17.130;2023-11-19T09:05:29;99765.60;;;5.70
70533;BMP180;58088;51.186;17.130;2023-11-19T09:07:56;99772.40;;;5.68
70533;BMP180;58088;51.186;17.130;2023-11-19T09:10:22;99763.00;;;5.70
70533;BMP180;58088;51.186;17.130;2023-11-19T09:12:48;99751.20;;;5.70
70533;BMP180;58088;51.186;17.130;2023-11-19T09:15:14;99747.60;;;5.70
70533;BMP180;58088;51.186;17.130;2023-11-19T09:17:40;99737.40;;;5.68
70533;BMP180;58088;51.186;17.130;2023-11-19T09:20:07;99733.40;;;5.60
70533;BMP180;58088;51.186;17.130;2023-11-19T09:22:34;99740.80;;;5.60
70533;BMP180;58088;51.186;17.130;2023-11-19T09:25:00;99744.00;;;5.70
70533;BMP180;58088;51.186;17.130;2023-11-19T09:27:26;99741.60;;;5.70
70533;BMP180;58088;51.186;17.130;2023-11-19T09:29:52;99735.80;;;5.70
70533;BMP180;58088;51.186;17.130;2023-11-19T09:32:23;99729.00;;;5.80
70533;BMP180;58088;51.186;17.130;2023-11-19T09:34:49;99728.40;;;5.80
70533;BMP180;58088;51.186;17.130;2023-11-19T09:37:15;99725.80;;;5.78
70533;BMP180;58088;51.186;17.130;2023-11-19T09:39:42;99727.00;;;5.80
70533;BMP180;58088;51.186;17.130;2023-11-19T09:42:12;99722.60;;;5.82
70533;BMP180;58088;51.186;17.130;2023-11-19T09:44:39;99719.60;;;5.90
70533;BMP180;58088;51.186;17.130;2023-11-19T09:47:07;99715.20;;;5.90
70533;BMP180;58088;51.186;17.130;2023-11-19T09:49:36;99705.00;;;5.92
70533;BMP180;58088;51.186;17.130;2023-11-19T09:52:02;99700.20;;;6.00
70533;BMP180;58088;51.186;17.130;2023-11-19T09:54:29;99695.40;;;6.00
70533;BMP180;58088;51.186;17.130;2023-11-19T09:56:58;99691.60;;;6.04
70533;BMP180;58088;51.186;17.130;2023-11-19T09:59:30;99686.40;;;6.06
70533;BMP180;58088;51.186;17.130;2023-11-19T10:01:57;99674.80;;;6.08
70533;BMP180;58088;51.186;17.130;2023-11-19T10:04:24;99665.20;;;6.10
70533;BMP180;58088;51.186;17.130;2023-11-19T10:06:51;99659.80;;;6.10
70533;BMP180;58088;51.186;17.130;2023-11-19T10:09:18;99643.60;;;6.10
70533;BMP180;58088;51.186;17.130;2023-11-19T10:11:44;99637.80;;;6.18
70533;BMP180;58088;51.186;17.130;2023-11-19T10:14:11;99637.40;;;6.20
70533;BMP180;58088;51.186;17.130;2023-11-19T10:16:38;99638.60;;;6.20
70533;BMP180;58088;51.186;17.130;2023-11-19T10:19:05;99627.60;;;6.22
70533;BMP180;58088;51.186;17.130;2023-11-19T10:21:33;99631.60;;;6.30
70533;BMP180;58088;51.186;17.130;2023-11-19T10:23:59;99622.40;;;6.32
70533;BMP180;58088;51.186;17.130;2023-11-19T10:26:27;99619.00;;;6.40
70533;BMP180;58088;51.186;17.130;2023-11-19T10:28:56;99610.80;;;6.42
70533;BMP180;58088;51.186;17.130;2023-11-19T10:31:22;99603.20;;;6.50
70533;BMP180;58088;51.186;17.130;2023-11-19T10:33:52;99592.40;;;6.60
70533;BMP180;58088;51.186;17.130;2023-11-19T10:36:18;99577.40;;;6.60
70533;BMP180;58088;51.186;17.130;2023-11-19T10:38:54;99567.40;;;6.70
70533;BMP180;58088;51.186;17.130;2023-11-19T10:41:31;99569.00;;;6.80
70533;BMP180;58088;51.186;17.130;2023-11-19T10:44:01;99567.60;;;6.90
70533;BMP180;58088;51.186;17.130;2023-11-19T10:46:41;99556.80;;;7.00
70533;BMP180;58088;51.186;17.130;2023-11-19T10:49:09;99566.60;;;7.00
70533;BMP180;58088;51.186;17.130;2023-11-19T10:51:35;99560.60;;;7.10
70533;BMP180;58088;51.186;17.130;2023-11-19T10:54:04;99559.80;;;7.10
70533;BMP180;58088;51.186;17.130;2023-11-19T10:56:34;99552.40;;;7.10
70533;BMP180;58088;51.186;17.130;2023-11-19T10:59:01;99553.40;;;7.20
70533;BMP180;58088;51.186;17.130;2023-11-19T11:01:39;99554.40;;;7.20
70533;BMP180;58088;51.186;17.130;2023-11-19T11:04:23;99547.80;;;7.20
70533;BMP180;58088;51.186;17.130;2023-11-19T11:06:58;99529.80;;;7.30
70533;BMP180;58088;51.186;17.130;2023-11-19T11:09:27;99529.60;;;7.40
70533;BMP180;58088;51.186;17.130;2023-11-19T11:11:55;99524.60;;;7.40
70533;BMP180;58088;51.186;17.130;2023-11-19T11:14:25;99526.00;;;7.40
70533;BMP180;58088;51.186;17.130;2023-11-19T11:16:53;99527.40;;;7.44
70533;BMP180;58088;51.186;17.130;2023-11-19T11:19:19;99536.20;;;7.50
70533;BMP180;58088;51.186;17.130;2023-11-19T11:21:52;99527.40;;;7.50
70533;BMP180;58088;51.186;17.130;2023-11-19T11:24:49;99524.00;;;7.60
70533;BMP180;58088;51.186;17.130;2023-11-19T11:27:38;99526.60;;;7.60
70533;BMP180;58088;51.186;17.130;2023-11-19T11:36:22;99515.00;;;7.64
70533;BMP180;58088;51.186;17.130;2023-11-19T11:38:49;99505.20;;;7.70
70533;BMP180;58088;51.186;17.130;2023-11-19T11:43:54;99509.20;;;7.68
70533;BMP180;58088;51.186;17.130;2023-11-19T11:49:05;99504.40;;;7.68
70533;BMP180;58088;51.186;17.130;2023-11-19T11:57:21;99490.40;;;7.68
70533;BMP180;58088;51.186;17.130;2023-11-19T11:59:49;99487.80;;;7.68
70533;BMP180;58088;51.186;17.130;2023-11-19T12:02:22;99492.00;;;7.70
70533;BMP180;58088;51.186;17.130;2023-11-19T12:04:52;99484.00;;;7.70
70533;BMP180;58088;51.186;17.130;2023-11-19T12:07:24;99491.20;;;7.70
70533;BMP180;58088;51.186;17.130;2023-11-19T12:10:02;99481.60;;;7.70
70533;BMP180;58088;51.186;17.130;2023-11-19T12:12:33;99471.00;;;7.78
70533;BMP180;58088;51.186;17.130;2023-11-19T12:15:09;99465.00;;;7.80
70533;BMP180;58088;51.186;17.130;2023-11-19T12:17:48;99456.60;;;7.80
70533;BMP180;58088;51.186;17.130;2023-11-19T12:20:20;99452.20;;;7.84
70533;BMP180;58088;51.186;17.130;2023-11-19T12:22:48;99456.80;;;7.90
70533;BMP180;58088;51.186;17.130;2023-11-19T12:25:17;99449.40;;;8.00
70533;BMP180;58088;51.186;17.130;2023-11-19T12:27:49;99452.40;;;8.00
70533;BMP180;58088;51.186;17.130;2023-11-19T12:30:25;99446.20;;;8.10
70533;BMP180;58088;51.186;17.130;2023-11-19T12:32:54;99434.40;;;8.10
70533;BMP180;58088;51.186;17.130;2023-11-19T12:35:21;99442.00;;;8.20
70533;BMP180;58088;51.186;17.130;2023-11-19T12:37:52;99434.40;;;8.20
70533;BMP180;58088;51.186;17.130;2023-11-19T12:40:23;99436.00;;;8.22
70533;BMP180;58088;51.186;17.130;2023-11-19T12:42:52;99430.00;;;8.30
70533;BMP180;58088;51.186;17.130;2023-11-19T12:45:20;99422.60;;;8.40
70533;BMP180;58088;51.186;17.130;2023-11-19T12:48:05;99422.80;;;8.40
70533;BMP180;58088;51.186;17.130;2023-11-19T12:50:52;99420.80;;;8.50
70533;BMP180;58088;51.186;17.130;2023-11-19T12:53:20;99423.20;;;8.50
70533;BMP180;58088;51.186;17.130;2023-11-19T12:55:47;99422.40;;;8.60
70533;BMP180;58088;51.186;17.130;2023-11-19T12:58:35;99417.80;;;8.62
70533;BMP180;58088;51.186;17.130;2023-11-19T13:01:06;99421.00;;;8.70
70533;BMP180;58088;51.186;17.130;2023-11-19T13:03:36;99423.40;;;8.72
70533;BMP180;58088;51.186;17.130;2023-11-19T13:06:13;99409.40;;;8.70
70533;BMP180;58088;51.186;17.130;2023-11-19T13:08:49;99416.20;;;8.72
70533;BMP180;58088;51.186;17.130;2023-11-19T13:11:35;99414.00;;;8.80
70533;BMP180;58088;51.186;17.130;2023-11-19T13:14:05;99414.60;;;8.84
70533;BMP180;58088;51.186;17.130;2023-11-19T13:16:37;99410.00;;;8.90
70533;BMP180;58088;51.186;17.130;2023-11-19T13:19:04;99400.00;;;9.00
70533;BMP180;58088;51.186;17.130;2023-11-19T13:21:32;99401.40;;;9.00
70533;BMP180;58088;51.186;17.130;2023-11-19T13:23:58;99399.40;;;9.10
70533;BMP180;58088;51.186;17.130;2023-11-19T13:26:24;99393.40;;;9.10
70533;BMP180;58088;51.186;17.130;2023-11-19T13:28:50;99395.80;;;9.20
70533;BMP180;58088;51.186;17.130;2023-11-19T13:31:17;99386.80;;;9.20
70533;BMP180;58088;51.186;17.130;2023-11-19T13:33:43;99385.60;;;9.22
70533;BMP180;58088;51.186;17.130;2023-11-19T13:36:09;99383.40;;;9.28
70533;BMP180;58088;51.186;17.130;2023-11-19T13:38:36;99381.80;;;9.28
70533;BMP180;58088;51.186;17.130;2023-11-19T13:41:03;99376.40;;;9.30
70533;BMP180;58088;51.186;17.130;2023-11-19T13:43:35;99374.20;;;9.30
70533;BMP180;58088;51.186;17.130;2023-11-19T13:46:01;99370.80;;;9.30
70533;BMP180;58088;51.186;17.130;2023-11-19T13:48:27;99368.20;;;9.38
70533;BMP180;58088;51.186;17.130;2023-11-19T13:50:58;99367.60;;;9.40
70533;BMP180;58088;51.186;17.130;2023-11-19T13:53:24;99373.40;;;9.40
70533;BMP180;58088;51.186;17.130;2023-11-19T13:55:50;99375.80;;;9.40
70533;BMP180;58088;51.186;17.130;2023-11-19T13:58:16;99373.80;;;9.50
70533;BMP180;58088;51.186;17.130;2023-11-19T14:00:43;99376.20;;;9.50
70533;BMP180;58088;51.186;17.130;2023-11-19T14:03:09;99374.20;;;9.50
70533;BMP180;58088;51.186;17.130;2023-11-19T14:05:39;99373.00;;;9.60
70533;BMP180;58088;51.186;17.130;2023-11-19T14:08:07;99373.40;;;9.60
70533;BMP180;58088;51.186;17.130;2023-11-19T14:10:40;99372.40;;;9.70
70533;BMP180;58088;51.186;17.130;2023-11-19T14:13:07;99365.00;;;9.70
70533;BMP180;58088;51.186;17.130;2023-11-19T14:15:34;99369.00;;;9.70
70533;BMP180;58088;51.186;17.130;2023-11-19T14:18:01;99370.40;;;9.70
70533;BMP180;58088;51.186;17.130;2023-11-19T14:20:27;99369.60;;;9.70
70533;BMP180;58088;51.186;17.130;2023-11-19T14:22:53;99379.60;;;9.80
70533;BMP180;58088;51.186;17.130;2023-11-19T14:25:22;99377.80;;;9.80
70533;BMP180;58088;51.186;17.130;2023-11-19T14:27:49;99378.40;;;9.82